sensor_id;sensor_type;location;lat;lon;timestamp;temperature;humidity
28336;DHT22;15592;53.656;7.276;2023-03-13T00:01:24;8.10;99.90
28336;DHT22;15592;53.656;7.276;2023-03-13T00:03:50;8.10;99.90
28336;DHT22;15592;53.656;7.276;2023-03-13T00:06:16;8.20;99.90
28336;DHT22;15592;53.656;7.276;2023-03-13T00:08:42;8.20;99.90
28336;DHT22;15592;53.656;7.276;2023-03-13T00:11:11;8.20;99.90
28336;DHT22;15592;53.656;7.276;2023-03-13T00:13:37;8.20;99.90
28336;DHT22;15592;53.656;7.276;2023-03-13T00:16:08;8.20;99.90
28336;DHT22;15592;53.656;7.276;2023-03-13T00:18:34;8.20;99.90
28336;DHT22;15592;53.656;7.276;2023-03-13T00:21:01;8.20;99.90
28336;DHT22;15592;53.656;7.276;2023-03-13T00:23:28;8.30;99.90
28336;DHT22;15592;53.656;7.276;2023-03-13T00:25:57;8.30;99.90
28336;DHT22;15592;53.656;7.276;2023-03-13T00:28:23;8.30;99.90
28336;DHT22;15592;53.656;7.276;2023-03-13T00:30:49;8.30;99.90
28336;DHT22;15592;53.656;7.276;2023-03-13T00:33:14;8.30;99.90
28336;DHT22;15592;53.656;7.276;2023-03-13T00:35:40;8.30;99.90
28336;DHT22;15592;53.656;7.276;2023-03-13T00:38:05;8.30;99.90
28336;DHT22;15592;53.656;7.276;2023-03-13T00:40:31;8.30;99.90
28336;DHT22;15592;53.656;7.276;2023-03-13T00:42:57;8.40;99.90
28336;DHT22;15592;53.656;7.276;2023-03-13T00:45:22;8.30;99.90
28336;DHT22;15592;53.656;7.276;2023-03-13T00:47:48;8.30;99.90
28336;DHT22;15592;53.656;7.276;2023-03-13T00:50:14;8.40;99.90
28336;DHT22;15592;53.656;7.276;2023-03-13T00:52:40;8.40;99.90
28336;DHT22;15592;53.656;7.276;2023-03-13T00:55:06;8.40;99.90
28336;DHT22;15592;53.656;7.276;2023-03-13T00:57:31;8.50;99.90
28336;DHT22;15592;53.656;7.276;2023-03-13T01:00:04;8.40;99.90
28336;DHT22;15592;53.656;7.276;2023-03-13T01:02:30;8.50;99.90
28336;DHT22;15592;53.656;7.276;2023-03-13T01:04:56;8.50;99.90
28336;DHT22;15592;53.656;7.276;2023-03-13T01:07:22;8.50;99.90
28336;DHT22;15592;53.656;7.276;2023-03-13T01:09:47;8.50;99.90
28336;DHT22;15592;53.656;7.276;2023-03-13T01:12:13;8.50;99.90
28336;DHT22;15592;53.656;7.276;2023-03-13T01:14:38;8.40;99.90
28336;DHT22;15592;53.656;7.276;2023-03-13T01:17:04;8.40;99.90
28336;DHT22;15592;53.656;7.276;2023-03-13T01:19:29;8.40;99.90
28336;DHT22;15592;53.656;7.276;2023-03-13T01:21:55;8.40;99.90
28336;DHT22;15592;53.656;7.276;2023-03-13T01:24:21;8.40;99.90
28336;DHT22;15592;53.656;7.276;2023-03-13T01:26:47;8.40;99.90
28336;DHT22;15592;53.656;7.276;2023-03-13T01:29:13;8.40;99.90
28336;DHT22;15592;53.656;7.276;2023-03-13T01:31:38;8.40;99.90
28336;DHT22;15592;53.656;7.276;2023-03-13T01:34:05;8.40;99.90
28336;DHT22;15592;53.656;7.276;2023-03-13T01:36:31;8.40;99.90
28336;DHT22;15592;53.656;7.276;2023-03-13T01:38:58;8.40;99.90
28336;DHT22;15592;53.656;7.276;2023-03-13T01:41:25;8.30;99.90
28336;DHT22;15592;53.656;7.276;2023-03-13T01:43:52;8.40;99.90
28336;DHT22;15592;53.656;7.276;2023-03-13T01:46:21;8.30;99.90
28336;DHT22;15592;53.656;7.276;2023-03-13T01:53:49;8.40;99.90
28336;DHT22;15592;53.656;7.276;2023-03-13T01:56:29;8.40;99.90
28336;DHT22;15592;53.656;7.276;2023-03-13T01:58:56;8.40;99.90
28336;DHT22;15592;53.656;7.276;2023-03-13T02:01:23;8.40;99.90
28336;DHT22;15592;53.656;7.276;2023-03-13T02:03:50;8.40;99.90
28336;DHT22;15592;53.656;7.276;2023-03-13T02:06:16;8.40;99.90
28336;DHT22;15592;53.656;7.276;2023-03-13T02:08:51;8.30;99.90
28336;DHT22;15592;53.656;7.276;2023-03-13T02:14:02;8.30;99.90
28336;DHT22;15592;53.656;7.276;2023-03-13T02:16:29;8.30;99.90
28336;DHT22;15592;53.656;7.276;2023-03-13T02:18:56;8.30;99.90
28336;DHT22;15592;53.656;7.276;2023-03-13T02:22:01;8.30;99.90
28336;DHT22;15592;53.656;7.276;2023-03-13T02:24:34;8.30;99.90
28336;DHT22;15592;53.656;7.276;2023-03-13T02:27:01;8.30;99.90
28336;DHT22;15592;53.656;7.276;2023-03-13T02:29:28;8.30;99.90
28336;DHT22;15592;53.656;7.276;2023-03-13T02:31:54;8.30;99.90
28336;DHT22;15592;53.656;7.276;2023-03-13T02:34:26;8.30;99.90
28336;DHT22;15592;53.656;7.276;2023-03-13T02:36:53;8.30;99.90
28336;DHT22;15592;53.656;7.276;2023-03-13T02:39:21;8.30;99.90
28336;DHT22;15592;53.656;7.276;2023-03-13T02:41:48;8.30;99.90
28336;DHT22;15592;53.656;7.276;2023-03-13T02:44:15;8.30;99.90
28336;DHT22;15592;53.656;7.276;2023-03-13T02:46:51;8.20;99.90
28336;DHT22;15592;53.656;7.276;2023-03-13T02:49:22;8.20;99.90
28336;DHT22;15592;53.656;7.276;2023-03-13T02:51:49;8.20;99.90
28336;DHT22;15592;53.656;7.276;2023-03-13T02:54:34;8.20;99.90
28336;DHT22;15592;53.656;7.276;2023-03-13T02:57:03;8.20;99.90
28336;DHT22;15592;53.656;7.276;2023-03-13T02:59:29;8.20;99.90
28336;DHT22;15592;53.656;7.276;2023-03-13T03:01:55;8.20;99.90
28336;DHT22;15592;53.656;7.276;2023-03-13T03:04:22;8.20;99.90
28336;DHT22;15592;53.656;7.276;2023-03-13T03:06:48;8.20;99.90
28336;DHT22;15592;53.656;7.276;2023-03-13T03:09:15;8.20;99.90
28336;DHT22;15592;53.656;7.276;2023-03-13T03:11:40;8.20;99.90
28336;DHT22;15592;53.656;7.276;2023-03-13T03:14:06;8.20;99.90
28336;DHT22;15592;53.656;7.276;2023-03-13T03:16:32;8.20;99.90
28336;DHT22;15592;53.656;7.276;2023-03-13T03:18:57;8.20;99.90
28336;DHT22;15592;53.656;7.276;2023-03-13T03:21:23;8.20;99.90
28336;DHT22;15592;53.656;7.276;2023-03-13T03:23:49;8.20;99.90
28336;DHT22;15592;53.656;7.276;2023-03-13T03:26:16;8.20;99.90
28336;DHT22;15592;53.656;7.276;2023-03-13T03:28:41;8.20;99.90
28336;DHT22;15592;53.656;7.276;2023-03-13T03:31:09;8.20;99.90
28336;DHT22;15592;53.656;7.276;2023-03-13T03:33:36;8.20;99.90
28336;DHT22;15592;53.656;7.276;2023-03-13T03:36:04;8.20;99.90
28336;DHT22;15592;53.656;7.276;2023-03-13T03:38:30;8.20;99.90
28336;DHT22;15592;53.656;7.276;2023-03-13T03:40:56;8.20;99.90
28336;DHT22;15592;53.656;7.276;2023-03-13T03:43:22;8.20;99.90
28336;DHT22;15592;53.656;7.276;2023-03-13T03:45:48;8.20;99.90
28336;DHT22;15592;53.656;7.276;2023-03-13T03:48:13;8.20;99.90
28336;DHT22;15592;53.656;7.276;2023-03-13T03:50:39;8.20;99.90
28336;DHT22;15592;53.656;7.276;2023-03-13T03:53:05;8.30;99.90
28336;DHT22;15592;53.656;7.276;2023-03-13T03:55:30;8.30;99.90
28336;DHT22;15592;53.656;7.276;2023-03-13T03:57:56;8.30;99.90
28336;DHT22;15592;53.656;7.276;2023-03-13T04:00:21;8.30;99.90
28336;DHT22;15592;53.656;7.276;2023-03-13T04:02:47;8.30;99.90
28336;DHT22;15592;53.656;7.276;2023-03-13T04:05:13;8.40;99.90
28336;DHT22;15592;53.656;7.276;2023-03-13T04:07:39;8.40;99.90
28336;DHT22;15592;53.656;7.276;2023-03-13T04:10:05;8.40;99.90
28336;DHT22;15592;53.656;7.276;2023-03-13T04:12:31;8.40;99.90
28336;DHT22;15592;53.656;7.276;2023-03-13T04:14:56;8.40;99.90
28336;DHT22;15592;53.656;7.276;2023-03-13T04:17:22;8.50;99.90
28336;DHT22;15592;53.656;7.276;2023-03-13T04:19:47;8.50;99.90
28336;DHT22;15592;53.656;7.276;2023-03-13T04:22:13;8.50;99.90
28336;DHT22;15592;53.656;7.276;2023-03-13T04:24:39;8.50;99.90
28336;DHT22;15592;53.656;7.276;2023-03-13T04:27:04;8.50;99.90
28336;DHT22;15592;53.656;7.276;2023-03-13T04:29:31;8.60;99.90
28336;DHT22;15592;53.656;7.276;2023-03-13T04:31:57;8.60;99.90
28336;DHT22;15592;53.656;7.276;2023-03-13T04:34:22;8.60;99.90
28336;DHT22;15592;53.656;7.276;2023-03-13T04:36:48;8.70;99.90
28336;DHT22;15592;53.656;7.276;2023-03-13T04:39:14;8.70;99.90
28336;DHT22;15592;53.656;7.276;2023-03-13T04:41:39;8.70;99.90
28336;DHT22;15592;53.656;7.276;2023-03-13T04:44:05;8.80;99.90
28336;DHT22;15592;53.656;7.276;2023-03-13T04:46:31;8.80;99.90
28336;DHT22;15592;53.656;7.276;2023-03-13T04:48:56;8.80;99.90
28336;DHT22;15592;53.656;7.276;2023-03-13T04:51:22;8.80;99.90
28336;DHT22;15592;53.656;7.276;2023-03-13T04:53:47;8.80;99.90
28336;DHT22;15592;53.656;7.276;2023-03-13T04:56:22;8.90;99.90
28336;DHT22;15592;53.656;7.276;2023-03-13T04:58:48;8.90;99.90
28336;DHT22;15592;53.656;7.276;2023-03-13T05:01:14;9.00;99.90
28336;DHT22;15592;53.656;7.276;2023-03-13T05:03:39;9.00;99.90
28336;DHT22;15592;53.656;7.276;2023-03-13T05:06:05;9.00;99.90
28336;DHT22;15592;53.656;7.276;2023-03-13T05:08:31;9.00;99.90
28336;DHT22;15592;53.656;7.276;2023-03-13T05:10:56;9.10;99.90
28336;DHT22;15592;53.656;7.276;2023-03-13T05:13:22;9.10;99.90
28336;DHT22;15592;53.656;7.276;2023-03-13T05:15:48;9.20;99.90
28336;DHT22;15592;53.656;7.276;2023-03-13T05:18:14;9.20;99.90
28336;DHT22;15592;53.656;7.276;2023-03-13T05:20:39;9.30;99.90
28336;DHT22;15592;53.656;7.276;2023-03-13T05:23:05;9.30;99.90
28336;DHT22;15592;53.656;7.276;2023-03-13T05:25:31;9.40;99.90
28336;DHT22;15592;53.656;7.276;2023-03-13T05:27:57;9.40;99.90
28336;DHT22;15592;53.656;7.276;2023-03-13T05:30:22;9.50;99.90
28336;DHT22;15592;53.656;7.276;2023-03-13T05:32:48;9.50;99.90
28336;DHT22;15592;53.656;7.276;2023-03-13T05:35:14;9.60;99.90
28336;DHT22;15592;53.656;7.276;2023-03-13T05:37:39;9.60;99.90
28336;DHT22;15592;53.656;7.276;2023-03-13T05:40:05;9.60;99.90
28336;DHT22;15592;53.656;7.276;2023-03-13T05:42:31;9.60;99.90
28336;DHT22;15592;53.656;7.276;2023-03-13T05:44:56;9.70;99.90
28336;DHT22;15592;53.656;7.276;2023-03-13T05:47:22;9.70;99.90
28336;DHT22;15592;53.656;7.276;2023-03-13T05:49:48;9.70;99.90
28336;DHT22;15592;53.656;7.276;2023-03-13T05:52:13;9.80;99.90
28336;DHT22;15592;53.656;7.276;2023-03-13T05:54:39;9.80;99.90
28336;DHT22;15592;53.656;7.276;2023-03-13T05:57:05;9.80;99.90
28336;DHT22;15592;53.656;7.276;2023-03-13T05:59:30;9.80;99.90
28336;DHT22;15592;53.656;7.276;2023-03-13T06:01:56;9.80;99.90
28336;DHT22;15592;53.656;7.276;2023-03-13T06:04:21;9.80;99.90
28336;DHT22;15592;53.656;7.276;2023-03-13T06:06:47;9.90;99.90
28336;DHT22;15592;53.656;7.276;2023-03-13T06:09:12;9.90;99.90
28336;DHT22;15592;53.656;7.276;2023-03-13T06:11:38;9.90;99.90
28336;DHT22;15592;53.656;7.276;2023-03-13T06:14:04;10.00;99.90
28336;DHT22;15592;53.656;7.276;2023-03-13T06:16:29;10.00;99.90
28336;DHT22;15592;53.656;7.276;2023-03-13T06:18:55;10.10;99.90
28336;DHT22;15592;53.656;7.276;2023-03-13T06:21:20;10.10;99.90
28336;DHT22;15592;53.656;7.276;2023-03-13T06:23:46;10.10;99.90
28336;DHT22;15592;53.656;7.276;2023-03-13T06:26:12;10.10;99.90
28336;DHT22;15592;53.656;7.276;2023-03-13T06:28:37;10.10;99.90
28336;DHT22;15592;53.656;7.276;2023-03-13T06:31:04;10.20;99.90
28336;DHT22;15592;53.656;7.276;2023-03-13T06:33:30;10.20;99.90
28336;DHT22;15592;53.656;7.276;2023-03-13T06:35:56;10.20;99.90
28336;DHT22;15592;53.656;7.276;2023-03-13T06:38:23;10.20;99.90
28336;DHT22;15592;53.656;7.276;2023-03-13T06:40:48;10.20;99.90
28336;DHT22;15592;53.656;7.276;2023-03-13T06:43:14;10.20;99.90
28336;DHT22;15592;53.656;7.276;2023-03-13T06:45:39;10.20;99.90
28336;DHT22;15592;53.656;7.276;2023-03-13T06:48:05;10.20;99.90
28336;DHT22;15592;53.656;7.276;2023-03-13T06:50:31;10.20;99.90
28336;DHT22;15592;53.656;7.276;2023-03-13T06:52:57;10.30;99.90
28336;DHT22;15592;53.656;7.276;2023-03-13T06:55:23;10.30;99.90
28336;DHT22;15592;53.656;7.276;2023-03-13T06:57:52;10.30;99.90
28336;DHT22;15592;53.656;7.276;2023-03-13T07:00:18;10.30;99.90
28336;DHT22;15592;53.656;7.276;2023-03-13T07:02:44;10.30;99.90
28336;DHT22;15592;53.656;7.276;2023-03-13T07:05:10;10.30;99.90
28336;DHT22;15592;53.656;7.276;2023-03-13T07:07:35;10.30;99.90
28336;DHT22;15592;53.656;7.276;2023-03-13T07:10:01;10.40;99.90
28336;DHT22;15592;53.656;7.276;2023-03-13T07:12:27;10.40;99.90
28336;DHT22;15592;53.656;7.276;2023-03-13T07:14:53;10.40;99.90
28336;DHT22;15592;53.656;7.276;2023-03-13T07:17:18;10.40;99.90
28336;DHT22;15592;53.656;7.276;2023-03-13T07:19:44;10.40;99.90
28336;DHT22;15592;53.656;7.276;2023-03-13T07:22:10;10.40;99.90
28336;DHT22;15592;53.656;7.276;2023-03-13T07:24:35;10.40;99.90
28336;DHT22;15592;53.656;7.276;2023-03-13T07:27:01;10.40;99.90
28336;DHT22;15592;53.656;7.276;2023-03-13T07:29:26;10.50;99.90
28336;DHT22;15592;53.656;7.276;2023-03-13T07:31:52;10.40;99.90
28336;DHT22;15592;53.656;7.276;2023-03-13T07:34:18;10.40;99.90
28336;DHT22;15592;53.656;7.276;2023-03-13T07:36:43;10.40;99.90
28336;DHT22;15592;53.656;7.276;2023-03-13T07:39:09;10.40;99.90
28336;DHT22;15592;53.656;7.276;2023-03-13T07:41:34;10.40;99.90
28336;DHT22;15592;53.656;7.276;2023-03-13T07:44:00;10.40;99.90
28336;DHT22;15592;53.656;7.276;2023-03-13T07:46:26;10.40;99.90
28336;DHT22;15592;53.656;7.276;2023-03-13T07:48:52;10.40;99.90
28336;DHT22;15592;53.656;7.276;2023-03-13T07:51:21;10.40;99.90
28336;DHT22;15592;53.656;7.276;2023-03-13T07:53:47;10.40;99.90
28336;DHT22;15592;53.656;7.276;2023-03-13T07:56:15;10.40;99.90
28336;DHT22;15592;53.656;7.276;2023-03-13T07:58:42;10.40;99.90
28336;DHT22;15592;53.656;7.276;2023-03-13T08:01:26;10.40;99.90
28336;DHT22;15592;53.656;7.276;2023-03-13T08:03:52;10.50;99.90
28336;DHT22;15592;53.656;7.276;2023-03-13T08:06:21;10.50;99.90
28336;DHT22;15592;53.656;7.276;2023-03-13T08:08:48;10.50;99.90
28336;DHT22;15592;53.656;7.276;2023-03-13T08:11:16;10.50;99.90
28336;DHT22;15592;53.656;7.276;2023-03-13T08:13:42;10.50;99.90
28336;DHT22;15592;53.656;7.276;2023-03-13T08:16:13;10.50;99.90
28336;DHT22;15592;53.656;7.276;2023-03-13T08:18:45;10.50;99.90
28336;DHT22;15592;53.656;7.276;2023-03-13T08:21:13;10.60;99.90
28336;DHT22;15592;53.656;7.276;2023-03-13T08:23:38;10.60;99.90
28336;DHT22;15592;53.656;7.276;2023-03-13T08:26:10;10.60;99.90
28336;DHT22;15592;53.656;7.276;2023-03-13T08:28:36;10.60;99.90
28336;DHT22;15592;53.656;7.276;2023-03-13T08:31:15;10.60;99.90
28336;DHT22;15592;53.656;7.276;2023-03-13T08:33:42;10.60;99.90
28336;DHT22;15592;53.656;7.276;2023-03-13T08:36:11;10.60;99.90
28336;DHT22;15592;53.656;7.276;2023-03-13T08:38:37;10.60;99.90
28336;DHT22;15592;53.656;7.276;2023-03-13T08:41:03;10.70;99.90
28336;DHT22;15592;53.656;7.276;2023-03-13T08:43:29;10.70;99.90
28336;DHT22;15592;53.656;7.276;2023-03-13T08:45:55;10.70;99.90
28336;DHT22;15592;53.656;7.276;2023-03-13T08:48:21;10.70;99.90
28336;DHT22;15592;53.656;7.276;2023-03-13T08:50:47;10.80;99.90
28336;DHT22;15592;53.656;7.276;2023-03-13T08:53:13;10.80;99.90
28336;DHT22;15592;53.656;7.276;2023-03-13T08:55:38;10.90;99.90
28336;DHT22;15592;53.656;7.276;2023-03-13T08:58:04;10.90;99.90
28336;DHT22;15592;53.656;7.276;2023-03-13T09:00:29;10.90;99.90
28336;DHT22;15592;53.656;7.276;2023-03-13T09:02:58;11.00;99.90
28336;DHT22;15592;53.656;7.276;2023-03-13T09:05:23;11.10;99.90
28336;DHT22;15592;53.656;7.276;2023-03-13T09:07:49;11.20;99.90
28336;DHT22;15592;53.656;7.276;2023-03-13T09:10:15;11.20;99.90
28336;DHT22;15592;53.656;7.276;2023-03-13T09:12:41;11.30;99.90
28336;DHT22;15592;53.656;7.276;2023-03-13T09:15:07;11.30;99.90
28336;DHT22;15592;53.656;7.276;2023-03-13T09:17:33;11.30;99.90
28336;DHT22;15592;53.656;7.276;2023-03-13T09:19:58;11.40;99.90
28336;DHT22;15592;53.656;7.276;2023-03-13T09:22:24;11.40;99.90
28336;DHT22;15592;53.656;7.276;2023-03-13T09:24:49;11.50;99.90
28336;DHT22;15592;53.656;7.276;2023-03-13T09:27:15;11.50;99.90
28336;DHT22;15592;53.656;7.276;2023-03-13T09:29:41;11.50;99.90
28336;DHT22;15592;53.656;7.276;2023-03-13T09:32:08;11.50;99.90
28336;DHT22;15592;53.656;7.276;2023-03-13T09:34:34;11.60;99.90
28336;DHT22;15592;53.656;7.276;2023-03-13T09:36:59;11.60;99.90
28336;DHT22;15592;53.656;7.276;2023-03-13T09:39:25;11.80;99.90
28336;DHT22;15592;53.656;7.276;2023-03-13T09:42:04;11.80;99.90
28336;DHT22;15592;53.656;7.276;2023-03-13T09:44:44;11.90;99.90
28336;DHT22;15592;53.656;7.276;2023-03-13T09:49:48;12.10;99.90
28336;DHT22;15592;53.656;7.276;2023-03-13T09:52:18;12.20;99.90
28336;DHT22;15592;53.656;7.276;2023-03-13T09:55:00;12.20;99.90
28336;DHT22;15592;53.656;7.276;2023-03-13T09:57:33;12.30;99.90
28336;DHT22;15592;53.656;7.276;2023-03-13T10:02:33;12.40;99.90
28336;DHT22;15592;53.656;7.276;2023-03-13T10:05:21;12.40;99.90
28336;DHT22;15592;53.656;7.276;2023-03-13T10:07:48;12.40;99.90
28336;DHT22;15592;53.656;7.276;2023-03-13T10:10:19;12.40;99.90
28336;DHT22;15592;53.656;7.276;2023-03-13T10:12:47;12.50;99.90
28336;DHT22;15592;53.656;7.276;2023-03-13T10:15:32;12.50;99.90
28336;DHT22;15592;53.656;7.276;2023-03-13T10:18:09;12.50;99.90
28336;DHT22;15592;53.656;7.276;2023-03-13T10:20:36;12.50;99.90
28336;DHT22;15592;53.656;7.276;2023-03-13T10:25:53;12.50;99.90
28336;DHT22;15592;53.656;7.276;2023-03-13T10:28:19;12.40;99.90
28336;DHT22;15592;53.656;7.276;2023-03-13T10:30:49;12.40;99.90
28336;DHT22;15592;53.656;7.276;2023-03-13T10:33:24;12.40;99.90
28336;DHT22;15592;53.656;7.276;2023-03-13T10:36:17;12.40;99.90
28336;DHT22;15592;53.656;7.276;2023-03-13T10:38:51;12.40;99.90
28336;DHT22;15592;53.656;7.276;2023-03-13T10:41:26;12.50;99.90
28336;DHT22;15592;53.656;7.276;2023-03-13T10:43:54;12.60;99.90
28336;DHT22;15592;53.656;7.276;2023-03-13T10:46:27;12.60;99.90
28336;DHT22;15592;53.656;7.276;2023-03-13T10:48:55;12.70;99.90
28336;DHT22;15592;53.656;7.276;2023-03-13T10:51:23;12.70;99.90
28336;DHT22;15592;53.656;7.276;2023-03-13T10:53:49;12.70;99.90
28336;DHT22;15592;53.656;7.276;2023-03-13T10:56:23;12.80;99.90
28336;DHT22;15592;53.656;7.276;2023-03-13T10:58:51;12.80;99.90
28336;DHT22;15592;53.656;7.276;2023-03-13T11:03:47;13.10;99.90
28336;DHT22;15592;53.656;7.276;2023-03-13T11:06:31;13.20;99.90
28336;DHT22;15592;53.656;7.276;2023-03-13T11:09:15;13.20;99.90
28336;DHT22;15592;53.656;7.276;2023-03-13T11:11:48;13.20;99.90
28336;DHT22;15592;53.656;7.276;2023-03-13T11:14:17;13.20;99.90
28336;DHT22;15592;53.656;7.276;2023-03-13T11:16:51;13.20;99.90
28336;DHT22;15592;53.656;7.276;2023-03-13T11:24:55;13.20;99.90
28336;DHT22;15592;53.656;7.276;2023-03-13T11:27:35;13.20;99.90
28336;DHT22;15592;53.656;7.276;2023-03-13T11:30:24;13.20;99.90
28336;DHT22;15592;53.656;7.276;2023-03-13T11:33:24;13.30;99.90
28336;DHT22;15592;53.656;7.276;2023-03-13T11:44:30;13.40;99.90
28336;DHT22;15592;53.656;7.276;2023-03-13T11:47:04;13.40;99.90
28336;DHT22;15592;53.656;7.276;2023-03-13T11:49:56;13.40;99.90
28336;DHT22;15592;53.656;7.276;2023-03-13T11:52:37;13.50;99.90
28336;DHT22;15592;53.656;7.276;2023-03-13T12:03:15;13.60;99.90
28336;DHT22;15592;53.656;7.276;2023-03-13T12:05:47;13.60;99.90
28336;DHT22;15592;53.656;7.276;2023-03-13T12:08:20;13.40;99.90
28336;DHT22;15592;53.656;7.276;2023-03-13T12:19:15;13.30;99.90
28336;DHT22;15592;53.656;7.276;2023-03-13T12:21:49;13.20;99.90
28336;DHT22;15592;53.656;7.276;2023-03-13T12:24:40;13.20;99.90
28336;DHT22;15592;53.656;7.276;2023-03-13T12:27:33;13.20;99.90
28336;DHT22;15592;53.656;7.276;2023-03-13T12:33:12;13.20;99.90
28336;DHT22;15592;53.656;7.276;2023-03-13T12:35:44;13.20;99.90
28336;DHT22;15592;53.656;7.276;2023-03-13T12:38:25;13.20;99.90
28336;DHT22;15592;53.656;7.276;2023-03-13T12:43:42;13.10;99.90
28336;DHT22;15592;53.656;7.276;2023-03-13T12:46:38;13.10;99.90
28336;DHT22;15592;53.656;7.276;2023-03-13T12:49:28;13.00;99.90
28336;DHT22;15592;53.656;7.276;2023-03-13T13:00:27;13.10;99.90
28336;DHT22;15592;53.656;7.276;2023-03-13T13:05:31;13.30;99.90
28336;DHT22;15592;53.656;7.276;2023-03-13T13:07:57;13.40;99.90
28336;DHT22;15592;53.656;7.276;2023-03-13T13:10:26;13.40;99.90
28336;DHT22;15592;53.656;7.276;2023-03-13T13:15:48;13.40;99.90
28336;DHT22;15592;53.656;7.276;2023-03-13T13:18:25;13.40;99.90
28336;DHT22;15592;53.656;7.276;2023-03-13T13:23:41;13.50;99.90
28336;DHT22;15592;53.656;7.276;2023-03-13T13:28:56;13.50;99.90
28336;DHT22;15592;53.656;7.276;2023-03-13T13:31:44;13.50;99.90
28336;DHT22;15592;53.656;7.276;2023-03-13T13:35:00;13.60;99.90
28336;DHT22;15592;53.656;7.276;2023-03-13T13:37:27;13.70;99.90
28336;DHT22;15592;53.656;7.276;2023-03-13T13:40:18;13.70;99.90
28336;DHT22;15592;53.656;7.276;2023-03-13T13:42:58;13.80;99.90
28336;DHT22;15592;53.656;7.276;2023-03-13T13:45:35;13.70;99.90
28336;DHT22;15592;53.656;7.276;2023-03-13T13:48:24;13.80;99.90
28336;DHT22;15592;53.656;7.276;2023-03-13T13:53:42;13.80;99.90
28336;DHT22;15592;53.656;7.276;2023-03-13T13:58:58;13.90;99.90
28336;DHT22;15592;53.656;7.276;2023-03-13T14:01:24;13.90;99.90
28336;DHT22;15592;53.656;7.276;2023-03-13T14:03:52;13.90;99.90
28336;DHT22;15592;53.656;7.276;2023-03-13T14:06:26;13.90;99.90
28336;DHT22;15592;53.656;7.276;2023-03-13T14:08:59;13.80;99.90
28336;DHT22;15592;53.656;7.276;2023-03-13T14:11:31;13.80;99.90
28336;DHT22;15592;53.656;7.276;2023-03-13T14:14:19;13.80;99.90
28336;DHT22;15592;53.656;7.276;2023-03-13T14:16:55;13.80;99.90
28336;DHT22;15592;53.656;7.276;2023-03-13T14:19:28;13.80;99.90
28336;DHT22;15592;53.656;7.276;2023-03-13T14:22:06;13.80;99.90
28336;DHT22;15592;53.656;7.276;2023-03-13T14:24:33;13.80;99.90
28336;DHT22;15592;53.656;7.276;2023-03-13T14:26:59;13.80;99.90
28336;DHT22;15592;53.656;7.276;2023-03-13T14:29:25;13.70;99.90
28336;DHT22;15592;53.656;7.276;2023-03-13T14:31:56;13.70;99.90
28336;DHT22;15592;53.656;7.276;2023-03-13T14:34:22;13.70;99.90
28336;DHT22;15592;53.656;7.276;2023-03-13T14:36:50;13.70;99.90
28336;DHT22;15592;53.656;7.276;2023-03-13T14:42:09;13.70;99.90
28336;DHT22;15592;53.656;7.276;2023-03-13T14:44:36;13.70;99.90
28336;DHT22;15592;53.656;7.276;2023-03-13T14:47:27;13.70;99.90
28336;DHT22;15592;53.656;7.276;2023-03-13T14:50:01;13.60;99.90
28336;DHT22;15592;53.656;7.276;2023-03-13T14:52:30;13.50;99.90
28336;DHT22;15592;53.656;7.276;2023-03-13T14:55:11;13.50;99.90
28336;DHT22;15592;53.656;7.276;2023-03-13T14:57:57;13.40;99.90
28336;DHT22;15592;53.656;7.276;2023-03-13T15:00:33;13.40;99.90
28336;DHT22;15592;53.656;7.276;2023-03-13T15:05:49;13.30;99.90
28336;DHT22;15592;53.656;7.276;2023-03-13T15:08:26;13.20;99.90
28336;DHT22;15592;53.656;7.276;2023-03-13T15:10:52;13.20;99.90
28336;DHT22;15592;53.656;7.276;2023-03-13T15:13:33;13.10;99.90
28336;DHT22;15592;53.656;7.276;2023-03-13T15:15:59;13.10;99.90
28336;DHT22;15592;53.656;7.276;2023-03-13T15:18:33;13.00;99.90
28336;DHT22;15592;53.656;7.276;2023-03-13T15:23:52;12.90;99.90
28336;DHT22;15592;53.656;7.276;2023-03-13T15:26:19;12.90;99.90
28336;DHT22;15592;53.656;7.276;2023-03-13T15:28:44;12.90;99.90
28336;DHT22;15592;53.656;7.276;2023-03-13T15:31:12;12.80;99.90
28336;DHT22;15592;53.656;7.276;2023-03-13T15:33:38;12.80;99.90
28336;DHT22;15592;53.656;7.276;2023-03-13T15:36:05;12.80;99.90
28336;DHT22;15592;53.656;7.276;2023-03-13T15:38:30;12.70;99.90
28336;DHT22;15592;53.656;7.276;2023-03-13T15:40:56;12.70;99.90
28336;DHT22;15592;53.656;7.276;2023-03-13T15:43:22;12.70;99.90
28336;DHT22;15592;53.656;7.276;2023-03-13T15:45:49;12.70;99.90
28336;DHT22;15592;53.656;7.276;2023-03-13T15:48:26;12.70;99.90
28336;DHT22;15592;53.656;7.276;2023-03-13T15:50:58;12.70;99.90
28336;DHT22;15592;53.656;7.276;2023-03-13T15:53:31;12.60;99.90
28336;DHT22;15592;53.656;7.276;2023-03-13T15:56:01;12.60;99.90
28336;DHT22;15592;53.656;7.276;2023-03-13T15:58:28;12.60;99.90
28336;DHT22;15592;53.656;7.276;2023-03-13T16:00:55;12.60;99.90
28336;DHT22;15592;53.656;7.276;2023-03-13T16:03:24;12.60;99.90
28336;DHT22;15592;53.656;7.276;2023-03-13T16:05:51;12.60;99.90
28336;DHT22;15592;53.656;7.276;2023-03-13T16:08:20;12.50;99.90
28336;DHT22;15592;53.656;7.276;2023-03-13T16:10:47;12.50;99.90
28336;DHT22;15592;53.656;7.276;2023-03-13T16:13:13;12.50;99.90
28336;DHT22;15592;53.656;7.276;2023-03-13T16:15:38;12.50;99.90
28336;DHT22;15592;53.656;7.276;2023-03-13T16:18:05;12.50;99.90
28336;DHT22;15592;53.656;7.276;2023-03-13T16:20:32;12.50;99.90
28336;DHT22;15592;53.656;7.276;2023-03-13T16:22:59;12.50;99.90
28336;DHT22;15592;53.656;7.276;2023-03-13T16:25:29;12.50;99.90
28336;DHT22;15592;53.656;7.276;2023-03-13T16:27:56;12.40;99.90
28336;DHT22;15592;53.656;7.276;2023-03-13T16:30:28;12.40;99.90
28336;DHT22;15592;53.656;7.276;2023-03-13T16:32:54;12.40;99.90
28336;DHT22;15592;53.656;7.276;2023-03-13T16:35:19;12.30;99.90
28336;DHT22;15592;53.656;7.276;2023-03-13T16:37:45;12.30;99.90
28336;DHT22;15592;53.656;7.276;2023-03-13T16:40:19;12.30;99.90
28336;DHT22;15592;53.656;7.276;2023-03-13T16:42:45;12.30;99.90
28336;DHT22;15592;53.656;7.276;2023-03-13T16:45:11;12.30;99.90
28336;DHT22;15592;53.656;7.276;2023-03-13T16:47:38;12.20;99.90
28336;DHT22;15592;53.656;7.276;2023-03-13T16:50:35;12.20;99.90
28336;DHT22;15592;53.656;7.276;2023-03-13T16:53:01;12.10;99.90
28336;DHT22;15592;53.656;7.276;2023-03-13T16:55:27;12.10;99.90
28336;DHT22;15592;53.656;7.276;2023-03-13T16:57:57;12.10;99.90
28336;DHT22;15592;53.656;7.276;2023-03-13T17:00:25;12.00;99.90
28336;DHT22;15592;53.656;7.276;2023-03-13T17:02:51;12.00;99.90
28336;DHT22;15592;53.656;7.276;2023-03-13T17:05:17;11.90;99.90
28336;DHT22;15592;53.656;7.276;2023-03-13T17:07:44;11.90;99.90
28336;DHT22;15592;53.656;7.276;2023-03-13T17:10:29;11.90;99.90
28336;DHT22;15592;53.656;7.276;2023-03-13T17:12:55;11.90;99.90
28336;DHT22;15592;53.656;7.276;2023-03-13T17:15:22;11.80;99.90
28336;DHT22;15592;53.656;7.276;2023-03-13T17:17:49;11.80;99.90